EST,Max TemperatureF,Mean TemperatureF,Min TemperatureF,Max Dew PointF,MeanDew PointF,Min DewpointF,Max Humidity, Mean Humidity, Min Humidity, Max Sea Level PressureIn, Mean Sea Level PressureIn, Min Sea Level PressureIn, Max VisibilityMiles, Mean VisibilityMiles, Min VisibilityMiles, Max Wind SpeedMPH, Mean Wind SpeedMPH, Max Gust SpeedMPH,PrecipitationIn, CloudCover, Events, WindDirDegrees
2012-2-1,39,32,24,36,29,20,100,90,81,29.98,29.79,29.68,10,7,1,9,1,18,0.06,8,Rain,258
2012-2-2,35,27,18,30,17,9,82,70,63,30.25,30.09,29.93,10,9,3,10,7,20,0.00,8,Snow,333
2012-2-3,28,18,8,21,12,5,92,73,45,30.40,30.29,30.20,10,9,2,10,3,,0.00,5,Snow,323
2012-2-4,26,13,-2,21,12,-8,86,73,51,30.23,30.16,30.09,10,7,2,10,4,20,0.00,6,Snow,314
2012-2-5,26,6,-14,16,1,-19,87,68,48,30.22,30.11,29.92,10,10,5,8,1,16,0.00,3,,276
2012-2-6,44,32,19,25,21,14,78,61,42,29.95,29.82,29.73,10,10,10,12,4,20,0.00,4,,255
2012-2-7,37,23,9,27,18,2,80,66,49,30.24,29.98,29.80,10,9,2,10,7,18,0.00,6,Snow,314
2012-2-8,30,12,-7,5,-1,-12,83,62,23,30.32,30.18,30.03,10,10,10,6,1,,0.00,0,,45
2012-2-9,37,21,5,16,10,1,84,67,37,30.06,30.02,29.96,10,10,8,8,2,21,0.00,0,,293
2012-2-10,44,22,1,19,9,-5,87,63,23,30.09,29.98,29.85,10,10,8,5,0,,0.00,0,,340
2012-2-11,30,20,10,22,15,3,89,75,58,29.85,29.73,29.61,10,8,2,14,3,21,0.00,6,Snow,331
2012-2-12,8,4,0,-2,-7,-12,73,61,45,29.79,29.69,29.60,10,9,4,15,7,30,0.00,6,,303
2012-2-13,26,14,3,10,6,-3,80,68,46,29.92,29.76,29.63,10,8,1,14,5,25,0.00,7,Snow,303
2012-2-14,37,22,8,20,13,5,88,67,30,30.08,30.02,29.94,10,10,8,8,1,,0.00,5,,207
2012-2-15,39,32,24,29,23,19,88,76,53,30.23,30.14,30.04,10,10,5,4,0,,0.00,8,Snow,330
2012-2-16,44,37,30,30,28,26,93,74,49,30.27,30.15,29.94,10,9,5,9,1,,0.00,7,,163
2012-2-17,39,36,32,34,30,21,96,81,47,29.93,29.85,29.80,10,8,2,9,3,16,0.02,8,Rain-Snow,285
2012-2-18,33,32,28,27,21,16,86,67,52,29.92,29.84,29.78,10,8,1,10,5,21,0.01,7,Snow,302
2012-2-19,32,24,12,16,13,8,84,63,48,30.06,30.01,29.93,10,10,10,12,7,18,0.00,4,,302
2012-2-20,28,17,6,16,8,1,88,68,41,30.30,30.15,30.01,10,10,9,15,3,22,0.00,3,,336
2012-2-21,37,20,3,27,13,-1,88,66,36,30.35,30.10,29.77,10,9,1,14,2,,0.00,2,Snow,153
2012-2-22,45,36,28,32,27,22,93,81,43,29.78,29.60,29.47,10,7,1,10,2,,0.03,7,Rain-Snow,219
2012-2-23,37,32,26,34,28,21,100,85,57,29.71,29.42,29.33,10,6,1,13,2,20,0.02,7,Rain-Snow,311
2012-2-24,36,30,23,30,26,19,100,83,50,29.79,29.54,29.23,10,5,0,14,4,23,0.27,5,Fog-Snow,142
2012-2-25,32,26,19,29,22,11,93,81,67,29.72,29.24,29.03,10,2,0,14,6,29,0.13,8,Fog-Snow,285
2012-2-26,24,16,3,11,4,-2,84,63,32,30.43,30.09,29.70,10,5,1,20,12,39,0.00,5,Snow,279
2012-2-27,30,12,-7,23,13,-12,93,78,48,30.47,30.16,29.94,10,7,1,10,1,,0.01,6,Snow,328
2012-2-28,32,16,-2,29,17,-7,93,76,53,30.42,30.17,29.96,10,7,1,14,6,28,0.00,6,Snow,294
2012-2-29,32,12,-7,13,3,-13,92,60,35,30.41,30.26,30.04,10,10,9,15,1,23,0.00,1,Snow,130